sensor_id;sensor_type;location;lat;lon;timestamp;pressure;altitude;pressure_sealevel;temperature;humidity
37298;BME280;30517;51.932;4.278;2023-02-16T00:00:31;146029.09;;;37.66;0.00
37298;BME280;30517;51.932;4.278;2023-02-16T00:03:15;146061.56;;;37.65;0.00
37298;BME280;30517;51.932;4.278;2023-02-16T00:05:56;145828.72;;;37.70;0.00
37298;BME280;30517;51.932;4.278;2023-02-16T00:08:37;145815.28;;;37.70;0.00
37298;BME280;30517;51.932;4.278;2023-02-16T00:14:23;145868.50;;;37.70;0.00
37298;BME280;30517;51.932;4.278;2023-02-16T00:17:05;146094.94;;;37.65;0.00
37298;BME280;30517;51.932;4.278;2023-02-16T00:19:46;145868.50;;;37.70;0.00
37298;BME280;30517;51.932;4.278;2023-02-16T00:22:27;145861.78;;;37.70;0.00
37298;BME280;30517;51.932;4.278;2023-02-16T00:25:08;146115.81;;;37.64;0.00
37298;BME280;30517;51.932;4.278;2023-02-16T00:27:49;145828.16;;;37.70;0.00
37298;BME280;30517;51.932;4.278;2023-02-16T00:30:30;145768.91;;;37.71;0.00
37298;BME280;30517;51.932;4.278;2023-02-16T00:33:15;145762.22;;;37.71;0.00
37298;BME280;30517;51.932;4.278;2023-02-16T00:35:56;145802.38;;;37.70;0.00
37298;BME280;30517;51.932;4.278;2023-02-16T00:38:37;145828.16;;;37.70;0.00
37298;BME280;30517;51.932;4.278;2023-02-16T00:41:20;145861.59;;;37.69;0.00
37298;BME280;30517;51.932;4.278;2023-02-16T00:44:56;145889.25;;;37.68;0.00
37298;BME280;30517;51.932;4.278;2023-02-16T00:47:39;145968.56;;;37.66;0.00
37298;BME280;30517;51.932;4.278;2023-02-16T00:50:28;145781.09;;;37.70;0.00
37298;BME280;30517;51.932;4.278;2023-02-16T00:53:09;145821.25;;;37.69;0.00
37298;BME280;30517;51.932;4.278;2023-02-16T00:55:51;146964.09;;;37.45;0.00
37298;BME280;30517;51.932;4.278;2023-02-16T00:58:32;145867.75;;;37.68;0.00
37298;BME280;30517;51.932;4.278;2023-02-16T01:01:16;146175.13;;;37.63;0.00
37298;BME280;30517;51.932;4.278;2023-02-16T01:04:00;145941.88;;;37.67;0.00
37298;BME280;30517;51.932;4.278;2023-02-16T01:06:41;145955.69;;;37.67;0.00
37298;BME280;30517;51.932;4.278;2023-02-16T01:09:41;145942.25;;;37.67;0.00
37298;BME280;30517;51.932;4.278;2023-02-16T01:12:40;146014.47;;;37.65;0.00
37298;BME280;30517;51.932;4.278;2023-02-16T01:15:23;146034.66;;;37.65;0.00
37298;BME280;30517;51.932;4.278;2023-02-16T01:18:05;146067.44;;;37.64;0.00
37298;BME280;30517;51.932;4.278;2023-02-16T01:20:47;146102.34;;;37.64;0.00
37298;BME280;30517;51.932;4.278;2023-02-16T01:23:28;145914.97;;;37.67;0.00
37298;BME280;30517;51.932;4.278;2023-02-16T01:26:17;146220.44;;;37.60;0.00
37298;BME280;30517;51.932;4.278;2023-02-16T01:28:58;146327.75;;;37.60;0.00
37298;BME280;30517;51.932;4.278;2023-02-16T01:31:39;146287.41;;;37.60;0.00
37298;BME280;30517;51.932;4.278;2023-02-16T01:34:20;146300.53;;;37.60;0.00
37298;BME280;30517;51.932;4.278;2023-02-16T01:37:01;146387.66;;;37.58;0.00
37298;BME280;30517;51.932;4.278;2023-02-16T01:39:42;146473.50;;;37.56;0.00
37298;BME280;30517;51.932;4.278;2023-02-16T01:42:48;146613.69;;;37.54;0.00
37298;BME280;30517;51.932;4.278;2023-02-16T01:45:36;146692.72;;;37.52;0.00
37298;BME280;30517;51.932;4.278;2023-02-16T01:48:26;146600.88;;;37.54;0.00
37298;BME280;30517;51.932;4.278;2023-02-16T01:51:26;146594.16;;;37.54;0.00
37298;BME280;30517;51.932;4.278;2023-02-16T01:54:34;146725.94;;;37.51;0.00
37298;BME280;30517;51.932;4.278;2023-02-16T01:57:32;146665.78;;;37.52;0.00
37298;BME280;30517;51.932;4.278;2023-02-16T02:03:35;146799.09;;;37.50;0.00
37298;BME280;30517;51.932;4.278;2023-02-16T02:06:36;147049.44;;;37.44;0.00
37298;BME280;30517;51.932;4.278;2023-02-16T02:09:24;146845.78;;;37.49;0.00
37298;BME280;30517;51.932;4.278;2023-02-16T02:12:34;146917.94;;;37.47;0.00
37298;BME280;30517;51.932;4.278;2023-02-16T02:15:19;146958.78;;;37.46;0.00
37298;BME280;30517;51.932;4.278;2023-02-16T02:18:02;146897.75;;;37.47;0.00
37298;BME280;30517;51.932;4.278;2023-02-16T02:27:27;147003.97;;;37.45;0.00
37298;BME280;30517;51.932;4.278;2023-02-16T02:35:48;146937.16;;;37.45;0.00
37298;BME280;30517;51.932;4.278;2023-02-16T02:38:51;146917.66;;;37.46;0.00
37298;BME280;30517;51.932;4.278;2023-02-16T02:41:42;146950.13;;;37.45;0.00
37298;BME280;30517;51.932;4.278;2023-02-16T02:44:48;146910.22;;;37.45;0.00
37298;BME280;30517;51.932;4.278;2023-02-16T02:47:38;146936.66;;;37.45;0.00
37298;BME280;30517;51.932;4.278;2023-02-16T02:50:42;147001.06;;;37.43;0.00
37298;BME280;30517;51.932;4.278;2023-02-16T02:54:02;147008.53;;;37.43;0.00
37298;BME280;30517;51.932;4.278;2023-02-16T02:57:13;147021.25;;;37.43;0.00
37298;BME280;30517;51.932;4.278;2023-02-16T03:00:23;147020.72;;;37.42;0.00
37298;BME280;30517;51.932;4.278;2023-02-16T03:03:27;147101.13;;;37.41;0.00
37298;BME280;30517;51.932;4.278;2023-02-16T03:06:25;147094.22;;;37.41;0.00
37298;BME280;30517;51.932;4.278;2023-02-16T03:09:10;147107.69;;;37.41;0.00
37298;BME280;30517;51.932;4.278;2023-02-16T03:11:54;147014.53;;;37.43;0.00
37298;BME280;30517;51.932;4.278;2023-02-16T03:14:57;147107.69;;;37.41;0.00
37298;BME280;30517;51.932;4.278;2023-02-16T03:17:39;147001.59;;;37.44;0.00
37298;BME280;30517;51.932;4.278;2023-02-16T03:20:40;147007.78;;;37.43;0.00
37298;BME280;30517;51.932;4.278;2023-02-16T03:23:41;147206.81;;;37.39;0.00
37298;BME280;30517;51.932;4.278;2023-02-16T03:26:42;147054.38;;;37.42;0.00
37298;BME280;30517;51.932;4.278;2023-02-16T03:29:44;147128.09;;;37.41;0.00
37298;BME280;30517;51.932;4.278;2023-02-16T03:32:26;147272.94;;;37.37;0.00
37298;BME280;30517;51.932;4.278;2023-02-16T03:35:07;147166.22;;;37.40;0.00
37298;BME280;30517;51.932;4.278;2023-02-16T03:37:51;147013.78;;;37.42;0.00
37298;BME280;30517;51.932;4.278;2023-02-16T03:40:33;146980.13;;;37.42;0.00
37298;BME280;30517;51.932;4.278;2023-02-16T03:43:15;146993.78;;;37.42;0.00
37298;BME280;30517;51.932;4.278;2023-02-16T03:45:56;147396.66;;;37.34;0.00
37298;BME280;30517;51.932;4.278;2023-02-16T03:48:37;147258.84;;;37.37;0.00
37298;BME280;30517;51.932;4.278;2023-02-16T03:51:17;146920.81;;;37.44;0.00
37298;BME280;30517;51.932;4.278;2023-02-16T03:53:58;147013.97;;;37.42;0.00
37298;BME280;30517;51.932;4.278;2023-02-16T03:56:39;147324.00;;;37.35;0.00
37298;BME280;30517;51.932;4.278;2023-02-16T03:59:20;147033.63;;;37.41;0.00
37298;BME280;30517;51.932;4.278;2023-02-16T04:02:01;146980.13;;;37.42;0.00
37298;BME280;30517;51.932;4.278;2023-02-16T04:04:42;146993.59;;;37.42;0.00
37298;BME280;30517;51.932;4.278;2023-02-16T04:07:23;147020.53;;;37.42;0.00
37298;BME280;30517;51.932;4.278;2023-02-16T04:10:04;147008.53;;;37.43;0.00
37298;BME280;30517;51.932;4.278;2023-02-16T04:12:45;147568.84;;;37.31;0.00
37298;BME280;30517;51.932;4.278;2023-02-16T04:15:28;147292.38;;;37.37;0.00
37298;BME280;30517;51.932;4.278;2023-02-16T04:18:09;147844.00;;;37.25;0.00
37298;BME280;30517;51.932;4.278;2023-02-16T04:20:50;147239.09;;;37.38;0.00
37298;BME280;30517;51.932;4.278;2023-02-16T04:23:31;147107.88;;;37.41;0.00
37298;BME280;30517;51.932;4.278;2023-02-16T04:26:12;147067.47;;;37.41;0.00
37298;BME280;30517;51.932;4.278;2023-02-16T04:28:52;147086.91;;;37.40;0.00
37298;BME280;30517;51.932;4.278;2023-02-16T04:31:33;147060.75;;;37.41;0.00
37298;BME280;30517;51.932;4.278;2023-02-16T04:34:14;147535.16;;;37.31;0.00
37298;BME280;30517;51.932;4.278;2023-02-16T04:36:55;147192.56;;;37.39;0.00
37298;BME280;30517;51.932;4.278;2023-02-16T04:39:36;147191.81;;;37.38;0.00
37298;BME280;30517;51.932;4.278;2023-02-16T04:42:17;147000.50;;;37.42;0.00
37298;BME280;30517;51.932;4.278;2023-02-16T04:44:58;147073.44;;;37.40;0.00
37298;BME280;30517;51.932;4.278;2023-02-16T04:47:38;147205.59;;;37.37;0.00
37298;BME280;30517;51.932;4.278;2023-02-16T04:50:19;147171.78;;;37.38;0.00
37298;BME280;30517;51.932;4.278;2023-02-16T04:53:00;146914.06;;;37.44;0.00
37298;BME280;30517;51.932;4.278;2023-02-16T04:55:48;146960.66;;;37.43;0.00
37298;BME280;30517;51.932;4.278;2023-02-16T04:58:29;146966.66;;;37.42;0.00
37298;BME280;30517;51.932;4.278;2023-02-16T05:01:18;147054.00;;;37.41;0.00
37298;BME280;30517;51.932;4.278;2023-02-16T05:03:59;147053.25;;;37.40;0.00
37298;BME280;30517;51.932;4.278;2023-02-16T05:06:39;147098.88;;;37.40;0.00
37298;BME280;30517;51.932;4.278;2023-02-16T05:09:20;147046.53;;;37.40;0.00
37298;BME280;30517;51.932;4.278;2023-02-16T05:12:01;146927.00;;;37.43;0.00
37298;BME280;30517;51.932;4.278;2023-02-16T05:15:01;146907.53;;;37.43;0.00
37298;BME280;30517;51.932;4.278;2023-02-16T05:17:42;146894.06;;;37.43;0.00
37298;BME280;30517;51.932;4.278;2023-02-16T05:20:22;146828.94;;;37.45;0.00
37298;BME280;30517;51.932;4.278;2023-02-16T05:23:23;146880.41;;;37.44;0.00
37298;BME280;30517;51.932;4.278;2023-02-16T05:26:04;146776.31;;;37.46;0.00
37298;BME280;30517;51.932;4.278;2023-02-16T05:28:45;146847.47;;;37.44;0.00
37298;BME280;30517;51.932;4.278;2023-02-16T05:31:26;147685.56;;;37.27;0.00
37298;BME280;30517;51.932;4.278;2023-02-16T05:34:43;146657.06;;;37.49;0.00
37298;BME280;30517;51.932;4.278;2023-02-16T05:37:24;147092.16;;;37.40;0.00
37298;BME280;30517;51.932;4.278;2023-02-16T05:40:06;147085.56;;;37.39;0.00
37298;BME280;30517;51.932;4.278;2023-02-16T05:42:52;146649.88;;;37.48;0.00
37298;BME280;30517;51.932;4.278;2023-02-16T05:45:32;146531.25;;;37.50;0.00
37298;BME280;30517;51.932;4.278;2023-02-16T05:48:13;146496.44;;;37.51;0.00
37298;BME280;30517;51.932;4.278;2023-02-16T05:50:54;146450.69;;;37.52;0.00
37298;BME280;30517;51.932;4.278;2023-02-16T05:53:35;146397.28;;;37.53;0.00
37298;BME280;30517;51.932;4.278;2023-02-16T05:56:16;146550.06;;;37.50;0.00
37298;BME280;30517;51.932;4.278;2023-02-16T05:58:58;146337.78;;;37.54;0.00
37298;BME280;30517;51.932;4.278;2023-02-16T06:01:39;146278.28;;;37.55;0.00
37298;BME280;30517;51.932;4.278;2023-02-16T06:04:21;146642.44;;;37.48;0.00
37298;BME280;30517;51.932;4.278;2023-02-16T06:07:01;146391.22;;;37.53;0.00
37298;BME280;30517;51.932;4.278;2023-02-16T06:09:42;146986.66;;;37.41;0.00
37298;BME280;30517;51.932;4.278;2023-02-16T06:12:23;146351.25;;;37.54;0.00
37298;BME280;30517;51.932;4.278;2023-02-16T06:15:04;146324.72;;;37.55;0.00
37298;BME280;30517;51.932;4.278;2023-02-16T06:17:45;146311.28;;;37.55;0.00
37298;BME280;30517;51.932;4.278;2023-02-16T06:20:26;146224.56;;;37.56;0.00
37298;BME280;30517;51.932;4.278;2023-02-16T06:23:09;146198.31;;;37.57;0.00
37298;BME280;30517;51.932;4.278;2023-02-16T06:25:50;146318.66;;;37.55;0.00
37298;BME280;30517;51.932;4.278;2023-02-16T06:28:31;146271.56;;;37.55;0.00
37298;BME280;30517;51.932;4.278;2023-02-16T06:31:12;145965.47;;;37.61;0.00
37298;BME280;30517;51.932;4.278;2023-02-16T06:33:53;146171.75;;;37.58;0.00
37298;BME280;30517;51.932;4.278;2023-02-16T06:36:35;146219.13;;;37.57;0.00
37298;BME280;30517;51.932;4.278;2023-02-16T06:39:19;146244.75;;;37.56;0.00
37298;BME280;30517;51.932;4.278;2023-02-16T06:42:00;146251.47;;;37.56;0.00
37298;BME280;30517;51.932;4.278;2023-02-16T06:44:40;146278.69;;;37.56;0.00
37298;BME280;30517;51.932;4.278;2023-02-16T06:47:23;146278.41;;;37.56;0.00
37298;BME280;30517;51.932;4.278;2023-02-16T06:50:06;146385.56;;;37.54;0.00
37298;BME280;30517;51.932;4.278;2023-02-16T06:52:48;146225.56;;;37.58;0.00
37298;BME280;30517;51.932;4.278;2023-02-16T06:55:29;146199.94;;;37.58;0.00
37298;BME280;30517;51.932;4.278;2023-02-16T06:58:13;146239.00;;;37.58;0.00
37298;BME280;30517;51.932;4.278;2023-02-16T07:00:54;146511.00;;;37.52;0.00
37298;BME280;30517;51.932;4.278;2023-02-16T07:03:35;146444.78;;;37.53;0.00
37298;BME280;30517;51.932;4.278;2023-02-16T07:06:16;146092.63;;;37.60;0.00
37298;BME280;30517;51.932;4.278;2023-02-16T07:08:57;146092.63;;;37.60;0.00
37298;BME280;30517;51.932;4.278;2023-02-16T07:11:38;146033.34;;;37.61;0.00
37298;BME280;30517;51.932;4.278;2023-02-16T07:14:19;146278.41;;;37.56;0.00
37298;BME280;30517;51.932;4.278;2023-02-16T07:17:01;146092.63;;;37.60;0.00
37298;BME280;30517;51.932;4.278;2023-02-16T07:19:43;146139.41;;;37.60;0.00
37298;BME280;30517;51.932;4.278;2023-02-16T07:22:24;146199.94;;;37.58;0.00
37298;BME280;30517;51.932;4.278;2023-02-16T07:25:05;146020.19;;;37.62;0.00
37298;BME280;30517;51.932;4.278;2023-02-16T07:27:46;146047.06;;;37.62;0.00
37298;BME280;30517;51.932;4.278;2023-02-16T07:30:27;146126.28;;;37.60;0.00
37298;BME280;30517;51.932;4.278;2023-02-16T07:33:08;146392.66;;;37.55;0.00
37298;BME280;30517;51.932;4.278;2023-02-16T07:35:48;146372.88;;;37.56;0.00
37298;BME280;30517;51.932;4.278;2023-02-16T07:38:29;146313.31;;;37.57;0.00
37298;BME280;30517;51.932;4.278;2023-02-16T07:41:10;146320.38;;;37.58;0.00
37298;BME280;30517;51.932;4.278;2023-02-16T07:43:52;146947.72;;;37.44;0.00
37298;BME280;30517;51.932;4.278;2023-02-16T07:46:33;146306.59;;;37.57;0.00
37298;BME280;30517;51.932;4.278;2023-02-16T07:49:14;146027.19;;;37.63;0.00
37298;BME280;30517;51.932;4.278;2023-02-16T07:51:55;145926.81;;;37.65;0.00
37298;BME280;30517;51.932;4.278;2023-02-16T07:54:36;145880.56;;;37.66;0.00
37298;BME280;30517;51.932;4.278;2023-02-16T07:57:17;145874.44;;;37.66;0.00
37298;BME280;30517;51.932;4.278;2023-02-16T07:59:57;146220.13;;;37.60;0.00
37298;BME280;30517;51.932;4.278;2023-02-16T08:02:38;146432.38;;;37.55;0.00
37298;BME280;30517;51.932;4.278;2023-02-16T08:05:20;145854.47;;;37.67;0.00
37298;BME280;30517;51.932;4.278;2023-02-16T08:08:00;145822.00;;;37.68;0.00
37298;BME280;30517;51.932;4.278;2023-02-16T08:10:41;145801.84;;;37.68;0.00
37298;BME280;30517;51.932;4.278;2023-02-16T08:13:22;145767.47;;;37.69;0.00
37298;BME280;30517;51.932;4.278;2023-02-16T08:16:10;145920.91;;;37.66;0.00
37298;BME280;30517;51.932;4.278;2023-02-16T08:18:54;145801.84;;;37.68;0.00
37298;BME280;30517;51.932;4.278;2023-02-16T08:21:35;145780.38;;;37.68;0.00
37298;BME280;30517;51.932;4.278;2023-02-16T08:24:16;145714.44;;;37.70;0.00
37298;BME280;30517;51.932;4.278;2023-02-16T08:26:57;145688.09;;;37.70;0.00
37298;BME280;30517;51.932;4.278;2023-02-16T08:29:39;145660.84;;;37.71;0.00
37298;BME280;30517;51.932;4.278;2023-02-16T08:32:20;145927.06;;;37.65;0.00
37298;BME280;30517;51.932;4.278;2023-02-16T08:35:01;145614.88;;;37.72;0.00
37298;BME280;30517;51.932;4.278;2023-02-16T08:37:42;145787.06;;;37.68;0.00
37298;BME280;30517;51.932;4.278;2023-02-16T08:40:23;145661.38;;;37.71;0.00
37298;BME280;30517;51.932;4.278;2023-02-16T08:43:05;145688.09;;;37.70;0.00
37298;BME280;30517;51.932;4.278;2023-02-16T08:45:46;145601.97;;;37.72;0.00
37298;BME280;30517;51.932;4.278;2023-02-16T08:48:27;145747.88;;;37.69;0.00
37298;BME280;30517;51.932;4.278;2023-02-16T08:51:15;145828.16;;;37.68;0.00
37298;BME280;30517;51.932;4.278;2023-02-16T08:53:58;145615.41;;;37.72;0.00
37298;BME280;30517;51.932;4.278;2023-02-16T08:56:39;145940.50;;;37.65;0.00
37298;BME280;30517;51.932;4.278;2023-02-16T08:59:25;145587.72;;;37.73;0.00
37298;BME280;30517;51.932;4.278;2023-02-16T09:02:06;145573.75;;;37.73;0.00
37298;BME280;30517;51.932;4.278;2023-02-16T09:04:47;145554.13;;;37.73;0.00
37298;BME280;30517;51.932;4.278;2023-02-16T09:07:28;145573.75;;;37.73;0.00
37298;BME280;30517;51.932;4.278;2023-02-16T09:10:14;145674.66;;;37.70;0.00
37298;BME280;30517;51.932;4.278;2023-02-16T09:12:55;145807.41;;;37.67;0.00
37298;BME280;30517;51.932;4.278;2023-02-16T09:15:35;145600.88;;;37.71;0.00
37298;BME280;30517;51.932;4.278;2023-02-16T09:18:16;145513.78;;;37.73;0.00
37298;BME280;30517;51.932;4.278;2023-02-16T09:21:02;145474.13;;;37.74;0.00
37298;BME280;30517;51.932;4.278;2023-02-16T09:23:45;145588.00;;;37.72;0.00
37298;BME280;30517;51.932;4.278;2023-02-16T09:26:29;145601.41;;;37.72;0.00
37298;BME280;30517;51.932;4.278;2023-02-16T09:29:11;145513.78;;;37.73;0.00
37298;BME280;30517;51.932;4.278;2023-02-16T09:31:53;145273.84;;;37.78;0.00
37298;BME280;30517;51.932;4.278;2023-02-16T09:34:35;145607.59;;;37.71;0.00
37298;BME280;30517;51.932;4.278;2023-02-16T09:37:17;145480.31;;;37.74;0.00
37298;BME280;30517;51.932;4.278;2023-02-16T09:39:57;145594.16;;;37.71;0.00
37298;BME280;30517;51.932;4.278;2023-02-16T09:43:07;145561.09;;;37.72;0.00
37298;BME280;30517;51.932;4.278;2023-02-16T09:45:55;145567.28;;;37.71;0.00
37298;BME280;30517;51.932;4.278;2023-02-16T09:48:41;145406.94;;;37.74;0.00
37298;BME280;30517;51.932;4.278;2023-02-16T09:51:39;145566.72;;;37.71;0.00
37298;BME280;30517;51.932;4.278;2023-02-16T09:54:34;146378.16;;;37.54;0.00
37298;BME280;30517;51.932;4.278;2023-02-16T10:00:35;145326.91;;;37.75;0.00
37298;BME280;30517;51.932;4.278;2023-02-16T10:03:51;145339.84;;;37.75;0.00
37298;BME280;30517;51.932;4.278;2023-02-16T10:09:37;145126.59;;;37.79;0.00
37298;BME280;30517;51.932;4.278;2023-02-16T10:12:24;145032.66;;;37.81;0.00
37298;BME280;30517;51.932;4.278;2023-02-16T10:15:13;145013.00;;;37.81;0.00
37298;BME280;30517;51.932;4.278;2023-02-16T10:18:16;144978.97;;;37.81;0.00
37298;BME280;30517;51.932;4.278;2023-02-16T10:21:01;144992.38;;;37.81;0.00
37298;BME280;30517;51.932;4.278;2023-02-16T10:23:49;144912.28;;;37.83;0.00
37298;BME280;30517;51.932;4.278;2023-02-16T10:26:38;144671.75;;;37.88;0.00
37298;BME280;30517;51.932;4.278;2023-02-16T10:29:22;144992.38;;;37.81;0.00
37298;BME280;30517;51.932;4.278;2023-02-16T10:35:13;144777.91;;;37.86;0.00
37298;BME280;30517;51.932;4.278;2023-02-16T10:38:03;144691.88;;;37.88;0.00
37298;BME280;30517;51.932;4.278;2023-02-16T10:44:09;144618.41;;;37.89;0.00
37298;BME280;30517;51.932;4.278;2023-02-16T10:47:02;144477.13;;;37.92;0.00
37298;BME280;30517;51.932;4.278;2023-02-16T10:49:44;144403.56;;;37.93;0.00
37298;BME280;30517;51.932;4.278;2023-02-16T10:52:34;144436.84;;;37.92;0.00
37298;BME280;30517;51.932;4.278;2023-02-16T10:55:16;144202.53;;;37.96;0.00
37298;BME280;30517;51.932;4.278;2023-02-16T10:57:59;144128.34;;;37.98;0.00
37298;BME280;30517;51.932;4.278;2023-02-16T11:01:04;144086.94;;;37.99;0.00
37298;BME280;30517;51.932;4.278;2023-02-16T11:03:49;144060.09;;;37.99;0.00
37298;BME280;30517;51.932;4.278;2023-02-16T11:06:30;144423.13;;;37.91;0.00
37298;BME280;30517;51.932;4.278;2023-02-16T11:09:14;144817.78;;;37.82;0.00
37298;BME280;30517;51.932;4.278;2023-02-16T11:11:55;143811.63;;;38.03;0.00
37298;BME280;30517;51.932;4.278;2023-02-16T11:14:35;143804.94;;;38.03;0.00
37298;BME280;30517;51.932;4.278;2023-02-16T11:17:17;143993.38;;;37.99;0.00
37298;BME280;30517;51.932;4.278;2023-02-16T11:20:02;143597.44;;;38.07;0.00
37298;BME280;30517;51.932;4.278;2023-02-16T11:22:44;143549.53;;;38.09;0.00
37298;BME280;30517;51.932;4.278;2023-02-16T11:25:25;143717.81;;;38.04;0.00
37298;BME280;30517;51.932;4.278;2023-02-16T11:28:06;143428.16;;;38.10;0.00
37298;BME280;30517;51.932;4.278;2023-02-16T11:30:59;143359.41;;;38.12;0.00
37298;BME280;30517;51.932;4.278;2023-02-16T11:33:42;143508.66;;;38.09;0.00
37298;BME280;30517;51.932;4.278;2023-02-16T11:36:28;143292.94;;;38.13;0.00
37298;BME280;30517;51.932;4.278;2023-02-16T11:39:19;143253.00;;;38.13;0.00
37298;BME280;30517;51.932;4.278;2023-02-16T11:42:04;143259.69;;;38.13;0.00
37298;BME280;30517;51.932;4.278;2023-02-16T11:44:52;143488.91;;;38.08;0.00
37298;BME280;30517;51.932;4.278;2023-02-16T11:47:36;143165.06;;;38.15;0.00
37298;BME280;30517;51.932;4.278;2023-02-16T12:05:20;142638.59;;;38.23;0.00
37298;BME280;30517;51.932;4.278;2023-02-16T12:08:36;142563.66;;;38.24;0.00
37298;BME280;30517;51.932;4.278;2023-02-16T12:11:41;142495.94;;;38.25;0.00
37298;BME280;30517;51.932;4.278;2023-02-16T12:20:21;144222.00;;;37.88;0.00
37298;BME280;30517;51.932;4.278;2023-02-16T12:23:18;142205.44;;;38.30;0.00
37298;BME280;30517;51.932;4.278;2023-02-16T12:41:14;141478.91;;;38.43;0.00
37298;BME280;30517;51.932;4.278;2023-02-16T12:44:10;141703.38;;;38.38;0.00
37298;BME280;30517;51.932;4.278;2023-02-16T12:47:00;141070.09;;;38.51;0.00
37298;BME280;30517;51.932;4.278;2023-02-16T12:49:50;140729.31;;;38.57;0.00
37298;BME280;30517;51.932;4.278;2023-02-16T12:52:38;140729.34;;;38.56;0.00
37298;BME280;30517;51.932;4.278;2023-02-16T12:55:26;140490.50;;;38.60;0.00
37298;BME280;30517;51.932;4.278;2023-02-16T12:58:22;140298.25;;;38.64;0.00
37298;BME280;30517;51.932;4.278;2023-02-16T13:01:09;140375.81;;;38.62;0.00
37298;BME280;30517;51.932;4.278;2023-02-16T13:04:05;140123.25;;;38.66;0.00
37298;BME280;30517;51.932;4.278;2023-02-16T13:07:16;139957.66;;;38.69;0.00
37298;BME280;30517;51.932;4.278;2023-02-16T13:10:22;139801.56;;;38.72;0.00
37298;BME280;30517;51.932;4.278;2023-02-16T13:13:09;139631.13;;;38.74;0.00
37298;BME280;30517;51.932;4.278;2023-02-16T13:16:04;139617.78;;;38.74;0.00
37298;BME280;30517;51.932;4.278;2023-02-16T13:18:48;139342.28;;;38.80;0.00
37298;BME280;30517;51.932;4.278;2023-02-16T13:21:53;139314.47;;;38.80;0.00
37298;BME280;30517;51.932;4.278;2023-02-16T13:43:04;138532.78;;;38.93;0.00
37298;BME280;30517;51.932;4.278;2023-02-16T13:45:52;138400.78;;;38.95;0.00
37298;BME280;30517;51.932;4.278;2023-02-16T13:48:49;138201.50;;;38.99;0.00
37298;BME280;30517;51.932;4.278;2023-02-16T13:51:41;138665.38;;;38.89;0.00
37298;BME280;30517;51.932;4.278;2023-02-16T13:54:34;138188.44;;;38.98;0.00
37298;BME280;30517;51.932;4.278;2023-02-16T14:00:40;137939.59;;;39.03;0.00
37298;BME280;30517;51.932;4.278;2023-02-16T14:14:44;137178.56;;;39.17;0.00
37298;BME280;30517;51.932;4.278;2023-02-16T14:17:29;137158.19;;;39.17;0.00
37298;BME280;30517;51.932;4.278;2023-02-16T14:22:56;136978.47;;;39.20;0.00
37298;BME280;30517;51.932;4.278;2023-02-16T14:25:39;136978.88;;;39.19;0.00
37298;BME280;30517;51.932;4.278;2023-02-16T14:31:19;136762.56;;;39.24;0.00
37298;BME280;30517;51.932;4.278;2023-02-16T14:34:04;136798.66;;;39.23;0.00
37298;BME280;30517;51.932;4.278;2023-02-16T14:37:09;136657.63;;;39.26;0.00
37298;BME280;30517;51.932;4.278;2023-02-16T14:39:54;136637.69;;;39.26;0.00
37298;BME280;30517;51.932;4.278;2023-02-16T14:42:35;136520.88;;;39.27;0.00
37298;BME280;30517;51.932;4.278;2023-02-16T14:45:35;136548.88;;;39.27;0.00
37298;BME280;30517;51.932;4.278;2023-02-16T14:48:28;136512.28;;;39.28;0.00
37298;BME280;30517;51.932;4.278;2023-02-16T14:54:32;136260.31;;;39.33;0.00
37298;BME280;30517;51.932;4.278;2023-02-16T15:00:29;136114.72;;;39.36;0.00
37298;BME280;30517;51.932;4.278;2023-02-16T15:03:20;136121.91;;;39.35;0.00
37298;BME280;30517;51.932;4.278;2023-02-16T15:06:03;135954.81;;;39.38;0.00
37298;BME280;30517;51.932;4.278;2023-02-16T15:08:50;135906.78;;;39.39;0.00
37298;BME280;30517;51.932;4.278;2023-02-16T15:11:47;136208.13;;;39.33;0.00
37298;BME280;30517;51.932;4.278;2023-02-16T15:14:58;135793.88;;;39.41;0.00
37298;BME280;30517;51.932;4.278;2023-02-16T15:17:43;135691.00;;;39.43;0.00
37298;BME280;30517;51.932;4.278;2023-02-16T15:20:30;135859.75;;;39.39;0.00
37298;BME280;30517;51.932;4.278;2023-02-16T15:23:23;135627.00;;;39.44;0.00
37298;BME280;30517;51.932;4.278;2023-02-16T15:26:06;135607.06;;;39.44;0.00
37298;BME280;30517;51.932;4.278;2023-02-16T15:29:41;135676.19;;;39.43;0.00
37298;BME280;30517;51.932;4.278;2023-02-16T15:31:58;135648.06;;;39.44;0.00
37298;BME280;30517;51.932;4.278;2023-02-16T15:34:39;135542.03;;;39.46;0.00
37298;BME280;30517;51.932;4.278;2023-02-16T15:37:26;135493.41;;;39.47;0.00
37298;BME280;30517;51.932;4.278;2023-02-16T15:40:18;135661.34;;;39.44;0.00
37298;BME280;30517;51.932;4.278;2023-02-16T15:43:30;135485.19;;;39.47;0.00
37298;BME280;30517;51.932;4.278;2023-02-16T15:46:31;135526.59;;;39.47;0.00
37298;BME280;30517;51.932;4.278;2023-02-16T15:51:54;135471.91;;;39.47;0.00
37298;BME280;30517;51.932;4.278;2023-02-16T15:54:36;135443.19;;;39.48;0.00
37298;BME280;30517;51.932;4.278;2023-02-16T15:57:30;135373.63;;;39.49;0.00
37298;BME280;30517;51.932;4.278;2023-02-16T16:00:16;135562.56;;;39.46;0.00
37298;BME280;30517;51.932;4.278;2023-02-16T16:03:01;135366.97;;;39.49;0.00
37298;BME280;30517;51.932;4.278;2023-02-16T16:05:52;136181.53;;;39.33;0.00
37298;BME280;30517;51.932;4.278;2023-02-16T16:08:36;135607.06;;;39.44;0.00
37298;BME280;30517;51.932;4.278;2023-02-16T16:11:17;135425.44;;;39.47;0.00
37298;BME280;30517;51.932;4.278;2023-02-16T16:13:58;135389.47;;;39.49;0.00
37298;BME280;30517;51.932;4.278;2023-02-16T16:16:39;135614.84;;;39.44;0.00
37298;BME280;30517;51.932;4.278;2023-02-16T16:19:32;135336.34;;;39.49;0.00
37298;BME280;30517;51.932;4.278;2023-02-16T16:22:28;135312.28;;;39.49;0.00
37298;BME280;30517;51.932;4.278;2023-02-16T16:25:38;135292.38;;;39.49;0.00
37298;BME280;30517;51.932;4.278;2023-02-16T16:31:17;135154.56;;;39.52;0.00
37298;BME280;30517;51.932;4.278;2023-02-16T16:34:05;135146.34;;;39.52;0.00
37298;BME280;30517;51.932;4.278;2023-02-16T16:36:55;135169.44;;;39.51;0.00
37298;BME280;30517;51.932;4.278;2023-02-16T16:39:39;135189.97;;;39.51;0.00